DLH4PH EDDF-EGLL
Flight info
| Callsign | DLH4PH |
|---|---|
| Flight time | N/A |
| Altitude | 38000 |
| Route | OBOKA3W/25C OBOKA Z29 TORNU DCT ABNED L980 LOGAN |
| Aircraft | A321/M-SDE2E3FGIJ1LORWXYZ/HB1 |
Departure
| Time | N/A |
|---|---|
| Airport | Frankfurt Main Airport (EDDF) |
Arrival
| Time | 2026-05-04 15:53 |
|---|---|
| Airport | London Heathrow Airport (EGLL) |
| Time | Latitude | Longitude | Altitude | Speed | Heading |
|---|---|---|---|---|---|
| 2026-05-04 15:39 | 51.43709 | -0.48245 | 2608 ft | 218 kts | 133° |
| 2026-05-04 15:40 | 51.42775 | -0.46137 | 2957 ft | 225 kts | 121° |
| 2026-05-04 15:40 | 51.41930 | -0.44052 | 3002 ft | 222 kts | 121° |
| 2026-05-04 15:40 | 51.41085 | -0.41997 | 3008 ft | 222 kts | 121° |
| 2026-05-04 15:40 | 51.40221 | -0.39931 | 3009 ft | 221 kts | 122° |
| 2026-05-04 15:41 | 51.39274 | -0.37992 | 3010 ft | 222 kts | 137° |
| 2026-05-04 15:41 | 51.37964 | -0.36673 | 3009 ft | 224 kts | 152° |
| 2026-05-04 15:41 | 51.36766 | -0.35147 | 3006 ft | 221 kts | 121° |
| 2026-05-04 15:41 | 51.36259 | -0.32871 | 3010 ft | 218 kts | 97° |
| 2026-05-04 15:42 | 51.36129 | -0.30446 | 3009 ft | 219 kts | 91° |
| 2026-05-04 15:42 | 51.36048 | -0.28063 | 3004 ft | 218 kts | 91° |
| 2026-05-04 15:42 | 51.35974 | -0.25641 | 3002 ft | 218 kts | 91° |
| 2026-05-04 15:42 | 51.35895 | -0.23185 | 3001 ft | 218 kts | 91° |
| 2026-05-04 15:43 | 51.35845 | -0.20756 | 3000 ft | 219 kts | 88° |
| 2026-05-04 15:43 | 51.35887 | -0.18391 | 2998 ft | 218 kts | 86° |
| 2026-05-04 15:43 | 51.35948 | -0.15925 | 3000 ft | 217 kts | 86° |
| 2026-05-04 15:43 | 51.36005 | -0.13515 | 2999 ft | 217 kts | 85° |
| 2026-05-04 15:44 | 51.36065 | -0.11101 | 2995 ft | 218 kts | 86° |
| 2026-05-04 15:44 | 51.36253 | -0.08766 | 2992 ft | 216 kts | 75° |
| 2026-05-04 15:44 | 51.36698 | -0.06509 | 2988 ft | 215 kts | 60° |
| 2026-05-04 15:44 | 51.37627 | -0.04660 | 2992 ft | 214 kts | 43° |
| 2026-05-04 15:45 | 51.38823 | -0.03234 | 2996 ft | 216 kts | 33° |
| 2026-05-04 15:45 | 51.40146 | -0.02057 | 2991 ft | 215 kts | 25° |
| 2026-05-04 15:45 | 51.41399 | -0.00955 | 2993 ft | 204 kts | 30° |
| 2026-05-04 15:45 | 51.42614 | 0.00227 | 3008 ft | 200 kts | 31° |
| 2026-05-04 15:46 | 51.43847 | 0.01107 | 3014 ft | 187 kts | 8° |
| 2026-05-04 15:46 | 51.45066 | 0.00881 | 3018 ft | 183 kts | 340° |
| 2026-05-04 15:46 | 51.46073 | -0.00364 | 3003 ft | 187 kts | 308° |
| 2026-05-04 15:46 | 51.46515 | -0.02326 | 2998 ft | 191 kts | 276° |
| 2026-05-04 15:47 | 51.46524 | -0.04476 | 3000 ft | 193 kts | 272° |
| 2026-05-04 15:47 | 51.46525 | -0.06624 | 3000 ft | 193 kts | 272° |
| 2026-05-04 15:47 | 51.46528 | -0.08776 | 3002 ft | 193 kts | 272° |
| 2026-05-04 15:47 | 51.46532 | -0.10927 | 3003 ft | 193 kts | 271° |
| 2026-05-04 15:48 | 51.46533 | -0.13078 | 3006 ft | 193 kts | 271° |
| 2026-05-04 15:48 | 51.46533 | -0.15226 | 3005 ft | 193 kts | 272° |
| 2026-05-04 15:48 | 51.46532 | -0.19536 | 2962 ft | 194 kts | 271° |
| 2026-05-04 15:49 | 51.46530 | -0.21689 | 2778 ft | 192 kts | 271° |
| 2026-05-04 15:49 | 51.46528 | -0.23812 | 2539 ft | 190 kts | 271° |
| 2026-05-04 15:49 | 51.46526 | -0.25916 | 2289 ft | 187 kts | 271° |
| 2026-05-04 15:49 | 51.46523 | -0.27923 | 2039 ft | 173 kts | 272° |
| 2026-05-04 15:50 | 51.46520 | -0.29785 | 1839 ft | 160 kts | 272° |
| 2026-05-04 15:50 | 51.46517 | -0.31511 | 1610 ft | 150 kts | 272° |
| 2026-05-04 15:50 | 51.46515 | -0.33161 | 1417 ft | 146 kts | 270° |
| 2026-05-04 15:50 | 51.46510 | -0.34781 | 1184 ft | 144 kts | 271° |
| 2026-05-04 15:51 | 51.46508 | -0.36379 | 1025 ft | 145 kts | 273° |
| 2026-05-04 15:51 | 51.46499 | -0.37995 | 866 ft | 144 kts | 271° |
| 2026-05-04 15:51 | 51.46492 | -0.39599 | 605 ft | 142 kts | 275° |
| 2026-05-04 15:51 | 51.46494 | -0.41177 | 412 ft | 142 kts | 272° |
| 2026-05-04 15:52 | 51.46493 | -0.42762 | 218 ft | 141 kts | 273° |
| 2026-05-04 15:52 | 51.46491 | -0.43816 | 100 ft | 139 kts | 273° |
| 2026-05-04 15:52 | 51.46489 | -0.45554 | 86 ft | 91 kts | 269° |
| 2026-05-04 15:52 | 51.46487 | -0.46098 | 90 ft | 59 kts | 270° |
| 2026-05-04 15:53 | 51.46505 | -0.46577 | 92 ft | 35 kts | 284° |
| 2026-05-04 15:53 | 51.46595 | -0.46850 | 89 ft | 18 kts | 336° |
| 2026-05-04 15:53 | 51.46658 | -0.46737 | 90 ft | 17 kts | 88° |
| 2026-05-04 15:53 | 51.46658 | -0.46540 | 90 ft | 18 kts | 89° |
| 2026-05-04 15:54 | 51.46659 | -0.46326 | 89 ft | 20 kts | 90° |
| 2026-05-04 15:54 | 51.46660 | -0.46087 | 89 ft | 22 kts | 90° |
| 2026-05-04 15:54 | 51.46661 | -0.45834 | 86 ft | 24 kts | 89° |
| 2026-05-04 15:54 | 51.46662 | -0.45559 | 86 ft | 25 kts | 90° |
| 2026-05-04 15:55 | 51.46662 | -0.45299 | 86 ft | 21 kts | 90° |
| 2026-05-04 15:55 | 51.46663 | -0.45061 | 87 ft | 22 kts | 89° |
| 2026-05-04 15:55 | 51.46664 | -0.44806 | 87 ft | 23 kts | 90° |
| 2026-05-04 15:55 | 51.46683 | -0.44574 | 89 ft | 15 kts | 41° |
| 2026-05-04 15:56 | 51.46793 | -0.44553 | 88 ft | 18 kts | 360° |
| 2026-05-04 15:56 | 51.46919 | -0.44555 | 86 ft | 18 kts | 360° |
| 2026-05-04 15:56 | 51.46995 | -0.44616 | 90 ft | 10 kts | 282° |
| 2026-05-04 15:56 | 51.46996 | -0.44673 | 86 ft | 2 kts | 270° |
| 2026-05-04 15:57 | 51.46996 | -0.44676 | 313 ft | 1 kts | 270° |
| 2026-05-04 15:57 | 51.46998 | -0.44663 | 86 ft | 0 kts | 224° |
| 2026-05-04 15:58 | 51.47000 | -0.44674 | 88 ft | 0 kts | 269° |